createdAt,value
2023-01-19T00:00:11.043Z,981.59
2023-01-19T00:01:10.972Z,981.69
2023-01-19T00:02:10.949Z,981.65
2023-01-19T00:03:10.944Z,981.75
2023-01-19T00:04:10.941Z,981.69
2023-01-19T00:05:10.919Z,981.67
2023-01-19T00:06:10.973Z,981.65
2023-01-19T00:07:10.912Z,981.65
2023-01-19T00:08:10.895Z,981.69
2023-01-19T00:09:10.879Z,981.63
2023-01-19T00:10:10.860Z,981.69
2023-01-19T00:11:10.866Z,981.70
2023-01-19T00:12:10.857Z,981.67
2023-01-19T00:13:10.844Z,981.69
2023-01-19T00:14:10.835Z,981.70
2023-01-19T00:15:10.812Z,981.75
2023-01-19T00:16:10.813Z,981.75
2023-01-19T00:17:10.803Z,981.78
2023-01-19T00:18:11.242Z,981.73
2023-01-19T00:19:10.789Z,981.69
2023-01-19T00:20:10.777Z,981.79
2023-01-19T00:21:10.749Z,981.69
2023-01-19T00:22:10.756Z,981.68
2023-01-19T00:23:10.734Z,981.71
2023-01-19T00:24:10.724Z,981.68
2023-01-19T00:25:10.711Z,981.64
2023-01-19T00:26:10.709Z,981.73
2023-01-19T00:27:10.695Z,981.69
2023-01-19T00:28:10.719Z,981.70
2023-01-19T00:29:10.674Z,981.72
2023-01-19T00:30:10.662Z,981.69
2023-01-19T00:31:10.688Z,981.70
2023-01-19T00:32:10.638Z,981.70
2023-01-19T00:33:10.627Z,981.69
2023-01-19T00:34:10.612Z,981.69
2023-01-19T00:35:10.631Z,981.68
2023-01-19T00:36:10.582Z,981.71
2023-01-19T00:37:10.569Z,981.69
2023-01-19T00:38:10.569Z,981.69
2023-01-19T00:39:10.564Z,981.71
2023-01-19T00:40:10.548Z,981.65
2023-01-19T00:41:10.537Z,981.74
2023-01-19T00:42:10.540Z,981.78
2023-01-19T00:43:10.507Z,981.71
2023-01-19T00:44:10.497Z,981.75
2023-01-19T00:45:10.478Z,981.76
2023-01-19T00:46:10.550Z,981.69
2023-01-19T00:47:10.452Z,981.71
2023-01-19T00:48:10.449Z,981.71
2023-01-19T00:49:10.445Z,981.71
2023-01-19T00:50:10.437Z,981.73
2023-01-19T00:51:10.458Z,981.67
2023-01-19T00:52:10.416Z,981.68
2023-01-19T00:53:10.397Z,981.72
2023-01-19T00:54:10.510Z,981.71
2023-01-19T00:55:10.387Z,981.62
2023-01-19T00:56:10.372Z,981.63
2023-01-19T00:57:10.366Z,981.67
2023-01-19T00:58:10.346Z,981.66
2023-01-19T00:59:10.351Z,981.66
2023-01-19T01:00:10.335Z,981.61
2023-01-19T01:01:10.389Z,981.66
2023-01-19T01:02:10.468Z,981.58
2023-01-19T01:03:10.345Z,981.62
2023-01-19T01:04:10.279Z,981.67
2023-01-19T01:05:10.275Z,981.63
2023-01-19T01:06:10.270Z,981.61
2023-01-19T01:07:10.262Z,981.63
2023-01-19T01:08:10.251Z,981.69
2023-01-19T01:09:10.225Z,981.76
2023-01-19T01:10:10.211Z,981.71
2023-01-19T01:11:10.193Z,981.72
2023-01-19T01:12:10.202Z,981.72
2023-01-19T01:13:21.229Z,981.71
2023-01-19T01:14:10.187Z,981.70
2023-01-19T01:15:10.156Z,981.75
2023-01-19T01:16:10.230Z,981.67
2023-01-19T01:17:10.129Z,981.71
2023-01-19T01:18:10.119Z,981.71
2023-01-19T01:19:10.113Z,981.68
2023-01-19T01:20:10.112Z,981.67
2023-01-19T01:21:10.092Z,981.75
2023-01-19T01:22:10.108Z,981.72
2023-01-19T01:23:10.064Z,981.77
2023-01-19T01:24:10.088Z,981.69
2023-01-19T01:25:10.134Z,981.79
2023-01-19T01:26:10.031Z,981.77
2023-01-19T01:27:10.034Z,981.75
2023-01-19T01:28:10.022Z,981.80
2023-01-19T01:29:09.997Z,981.87
2023-01-19T01:30:10.004Z,981.86
2023-01-19T01:31:09.979Z,981.92
2023-01-19T01:32:09.970Z,981.91
2023-01-19T01:33:09.967Z,981.87
2023-01-19T01:34:09.956Z,981.91
2023-01-19T01:35:09.945Z,981.90
2023-01-19T01:36:09.938Z,981.87
2023-01-19T01:37:09.912Z,981.85
2023-01-19T01:38:09.899Z,981.83
2023-01-19T01:39:09.935Z,981.82
2023-01-19T01:40:09.881Z,981.90
2023-01-19T01:41:09.886Z,981.92
2023-01-19T01:42:09.860Z,981.92
2023-01-19T01:43:09.856Z,981.98
2023-01-19T01:44:09.831Z,981.92
2023-01-19T01:45:09.823Z,981.92
2023-01-19T01:46:09.870Z,981.89
2023-01-19T01:47:09.835Z,981.94
2023-01-19T01:48:09.795Z,981.98
2023-01-19T01:49:09.773Z,981.94
2023-01-19T01:50:09.782Z,981.93
2023-01-19T01:51:09.753Z,981.92
2023-01-19T01:52:09.748Z,981.93
2023-01-19T01:53:09.968Z,981.92
2023-01-19T01:54:09.723Z,981.86
2023-01-19T01:55:09.717Z,981.92
2023-01-19T01:56:09.701Z,981.85
2023-01-19T01:57:09.699Z,981.84
2023-01-19T01:58:09.696Z,981.84
2023-01-19T01:59:09.704Z,981.83
2023-01-19T02:00:09.664Z,981.88
2023-01-19T02:01:09.786Z,981.87
2023-01-19T02:02:09.639Z,981.84
2023-01-19T02:03:09.652Z,981.92
2023-01-19T02:04:09.620Z,981.92
2023-01-19T02:05:09.615Z,981.86
2023-01-19T02:06:09.620Z,981.87
2023-01-19T02:07:09.583Z,981.87
2023-01-19T02:08:09.582Z,981.88
2023-01-19T02:09:09.564Z,981.87
2023-01-19T02:10:09.548Z,981.89
2023-01-19T02:11:09.569Z,981.84
2023-01-19T02:12:09.541Z,981.82
2023-01-19T02:13:09.519Z,981.85
2023-01-19T02:14:09.542Z,981.87
2023-01-19T02:15:09.512Z,981.88
2023-01-19T02:16:09.486Z,981.85
2023-01-19T02:17:09.471Z,981.88
2023-01-19T02:18:09.467Z,981.84
2023-01-19T02:19:09.465Z,981.88
2023-01-19T02:20:09.441Z,981.83
2023-01-19T02:21:09.456Z,981.85
2023-01-19T02:22:09.434Z,981.86
2023-01-19T02:23:09.410Z,981.89
2023-01-19T02:24:09.387Z,981.91
2023-01-19T02:25:09.408Z,981.91
2023-01-19T02:26:09.386Z,981.90
2023-01-19T02:27:09.366Z,981.88
2023-01-19T02:28:09.381Z,981.90
2023-01-19T02:29:09.340Z,981.84
2023-01-19T02:30:09.338Z,981.83
2023-01-19T02:31:09.316Z,981.80
2023-01-19T02:32:09.318Z,981.81
2023-01-19T02:33:09.320Z,981.84
2023-01-19T02:34:09.299Z,981.80
2023-01-19T02:35:09.285Z,981.75
2023-01-19T02:36:09.284Z,981.77
2023-01-19T02:37:09.242Z,981.76
2023-01-19T02:38:09.250Z,981.78
2023-01-19T02:39:09.246Z,981.75
2023-01-19T02:40:09.208Z,981.74
2023-01-19T02:41:09.207Z,981.66
2023-01-19T02:42:09.205Z,981.76
2023-01-19T02:43:09.197Z,981.75
2023-01-19T02:44:09.189Z,981.73
2023-01-19T02:45:09.163Z,981.70
2023-01-19T02:46:09.175Z,981.73
2023-01-19T02:47:09.164Z,981.74
2023-01-19T02:48:09.136Z,981.74
2023-01-19T02:49:09.135Z,981.71
2023-01-19T02:50:09.122Z,981.71
2023-01-19T02:51:09.093Z,981.66
2023-01-19T02:52:09.080Z,981.73
2023-01-19T02:53:09.089Z,981.78
2023-01-19T02:54:09.052Z,981.82
2023-01-19T02:55:09.046Z,981.71
2023-01-19T02:56:09.032Z,981.71
2023-01-19T02:57:09.027Z,981.74
2023-01-19T02:58:09.015Z,981.71
2023-01-19T02:59:09.021Z,981.76
2023-01-19T03:00:08.991Z,981.75
2023-01-19T03:01:09.102Z,981.69
2023-01-19T03:02:09.150Z,981.75
2023-01-19T03:03:08.984Z,981.69
2023-01-19T03:04:08.965Z,981.70
2023-01-19T03:05:08.951Z,981.65
2023-01-19T03:06:08.931Z,981.67
2023-01-19T03:07:08.925Z,981.73
2023-01-19T03:08:08.903Z,981.70
2023-01-19T03:09:08.918Z,981.67
2023-01-19T03:10:08.880Z,981.66
2023-01-19T03:11:08.867Z,981.65
2023-01-19T03:12:08.877Z,981.62
2023-01-19T03:13:08.849Z,981.68
2023-01-19T03:14:08.851Z,981.66
2023-01-19T03:15:08.852Z,981.70
2023-01-19T03:16:21.875Z,981.69
2023-01-19T03:17:08.833Z,981.64
2023-01-19T03:18:08.822Z,981.58
2023-01-19T03:19:08.797Z,981.65
2023-01-19T03:20:08.777Z,981.61
2023-01-19T03:21:08.785Z,981.70
2023-01-19T03:22:08.756Z,981.68
2023-01-19T03:23:08.741Z,981.64
2023-01-19T03:24:08.726Z,981.58
2023-01-19T03:25:08.749Z,981.58
2023-01-19T03:26:08.723Z,981.63
2023-01-19T03:27:08.704Z,981.63
2023-01-19T03:28:08.682Z,981.63
2023-01-19T03:29:08.676Z,981.57
2023-01-19T03:30:08.659Z,981.61
2023-01-19T03:31:08.763Z,981.66
2023-01-19T03:32:08.657Z,981.69
2023-01-19T03:33:08.643Z,981.64
2023-01-19T03:34:08.623Z,981.72
2023-01-19T03:35:08.603Z,981.66
2023-01-19T03:36:08.625Z,981.65
2023-01-19T03:37:08.595Z,981.69
2023-01-19T03:38:08.571Z,981.67
2023-01-19T03:39:08.564Z,981.68
2023-01-19T03:40:08.554Z,981.71
2023-01-19T03:41:08.545Z,981.69
2023-01-19T03:42:08.560Z,981.67
2023-01-19T03:43:08.538Z,981.64
2023-01-19T03:44:08.521Z,981.71
2023-01-19T03:45:08.498Z,981.67
2023-01-19T03:46:08.540Z,981.61
2023-01-19T03:47:08.467Z,981.67
2023-01-19T03:48:08.474Z,981.59
2023-01-19T03:49:08.451Z,981.62
2023-01-19T03:50:08.448Z,981.65
2023-01-19T03:51:08.454Z,981.69
2023-01-19T03:52:08.418Z,981.69
2023-01-19T03:53:08.429Z,981.71
2023-01-19T03:54:08.418Z,981.66
2023-01-19T03:55:08.390Z,981.65
2023-01-19T03:56:08.388Z,981.74
2023-01-19T03:57:08.366Z,981.70
2023-01-19T03:58:08.368Z,981.66
2023-01-19T03:59:08.377Z,981.73
2023-01-19T04:00:08.341Z,981.74
2023-01-19T04:01:08.462Z,981.68
2023-01-19T04:02:08.342Z,981.75
2023-01-19T04:03:08.333Z,981.67
2023-01-19T04:04:08.283Z,981.74
2023-01-19T04:05:08.302Z,981.78
2023-01-19T04:06:08.269Z,981.81
2023-01-19T04:07:08.255Z,981.76
2023-01-19T04:08:08.246Z,981.72
2023-01-19T04:09:08.225Z,981.78
2023-01-19T04:10:08.237Z,981.77
2023-01-19T04:11:08.244Z,981.78
2023-01-19T04:12:08.197Z,981.75
2023-01-19T04:13:08.198Z,981.69
2023-01-19T04:14:08.183Z,981.72
2023-01-19T04:15:08.158Z,981.75
2023-01-19T04:16:08.334Z,981.70
2023-01-19T04:17:08.136Z,981.75
2023-01-19T04:18:08.129Z,981.74
2023-01-19T04:19:08.132Z,981.72
2023-01-19T04:20:08.102Z,981.73
2023-01-19T04:21:08.096Z,981.76
2023-01-19T04:22:08.096Z,981.74
2023-01-19T04:23:08.066Z,981.73
2023-01-19T04:24:08.074Z,981.69
2023-01-19T04:25:08.117Z,981.78
2023-01-19T04:26:08.068Z,981.77
2023-01-19T04:27:08.032Z,981.68
2023-01-19T04:28:08.020Z,981.82
2023-01-19T04:29:08.039Z,981.72
2023-01-19T04:30:08.019Z,981.80
2023-01-19T04:31:08.092Z,981.81
2023-01-19T04:32:07.970Z,981.76
2023-01-19T04:33:07.978Z,981.77
2023-01-19T04:34:07.962Z,981.71
2023-01-19T04:35:07.963Z,981.73
2023-01-19T04:36:07.924Z,981.74
2023-01-19T04:37:07.929Z,981.71
2023-01-19T04:38:07.915Z,981.69
2023-01-19T04:39:07.894Z,981.67
2023-01-19T04:40:07.904Z,981.68
2023-01-19T04:41:07.879Z,981.67
2023-01-19T04:42:07.889Z,981.70
2023-01-19T04:43:07.860Z,981.60
2023-01-19T04:44:07.984Z,981.66
2023-01-19T04:45:07.844Z,981.67
2023-01-19T04:46:07.879Z,981.68
2023-01-19T04:47:07.819Z,981.68
2023-01-19T04:48:07.799Z,981.67
2023-01-19T04:49:07.798Z,981.68
2023-01-19T04:50:07.791Z,981.73
2023-01-19T04:51:07.782Z,981.72
2023-01-19T04:52:07.758Z,981.72
2023-01-19T04:53:07.775Z,981.78
2023-01-19T04:54:07.787Z,981.76
2023-01-19T04:55:07.743Z,981.75
2023-01-19T04:56:07.707Z,981.80
2023-01-19T04:57:07.714Z,981.71
2023-01-19T04:58:07.701Z,981.73
2023-01-19T04:59:07.713Z,981.68
2023-01-19T05:00:07.682Z,981.68
2023-01-19T05:01:07.731Z,981.70
2023-01-19T05:02:07.681Z,981.73
2023-01-19T05:03:07.728Z,981.70
2023-01-19T05:04:07.617Z,981.71
2023-01-19T05:05:07.636Z,981.67
2023-01-19T05:06:07.604Z,981.71
2023-01-19T05:07:07.593Z,981.71
2023-01-19T05:08:07.595Z,981.69
2023-01-19T05:09:07.584Z,981.76
2023-01-19T05:10:07.561Z,981.70
2023-01-19T05:11:07.577Z,981.68
2023-01-19T05:12:07.542Z,981.73
2023-01-19T05:13:07.538Z,981.68
2023-01-19T05:14:07.539Z,981.71
2023-01-19T05:15:07.510Z,981.71
2023-01-19T05:16:07.561Z,981.68
2023-01-19T05:17:07.486Z,981.72
2023-01-19T05:18:07.483Z,981.66
2023-01-19T05:19:07.565Z,981.68
2023-01-19T05:20:07.445Z,981.68
2023-01-19T05:21:07.452Z,981.63
2023-01-19T05:22:07.446Z,981.63
2023-01-19T05:23:07.426Z,981.62
2023-01-19T05:24:07.416Z,981.64
2023-01-19T05:25:07.391Z,981.58
2023-01-19T05:26:09.500Z,981.65
2023-01-19T05:27:07.392Z,981.65
2023-01-19T05:28:07.357Z,981.68
2023-01-19T05:29:07.348Z,981.67
2023-01-19T05:30:07.356Z,981.64
2023-01-19T05:31:07.460Z,981.63
2023-01-19T05:32:07.373Z,981.67
2023-01-19T05:33:07.319Z,981.63
2023-01-19T05:34:07.307Z,981.69
2023-01-19T05:35:07.306Z,981.73
2023-01-19T05:36:07.297Z,981.72
2023-01-19T05:37:07.292Z,981.78
2023-01-19T05:38:07.253Z,981.78
2023-01-19T05:39:07.255Z,981.72
2023-01-19T05:40:07.227Z,981.80
2023-01-19T05:41:07.216Z,981.77
2023-01-19T05:42:07.230Z,981.80
2023-01-19T05:43:07.207Z,981.83
2023-01-19T05:44:07.201Z,981.85
2023-01-19T05:45:07.197Z,981.85
2023-01-19T05:46:07.157Z,981.82
2023-01-19T05:47:07.159Z,981.85
2023-01-19T05:48:09.289Z,981.88
2023-01-19T05:49:07.144Z,981.84
2023-01-19T05:50:07.150Z,981.89
2023-01-19T05:51:07.128Z,981.89
2023-01-19T05:52:07.106Z,981.96
2023-01-19T05:53:07.092Z,981.96
2023-01-19T05:54:07.094Z,981.98
2023-01-19T05:55:07.068Z,982.03
2023-01-19T05:56:07.078Z,982.02
2023-01-19T05:57:07.043Z,982.04
2023-01-19T05:58:07.045Z,982.03
2023-01-19T05:59:07.022Z,982.03
2023-01-19T06:00:07.025Z,981.94
2023-01-19T06:01:07.095Z,981.99
2023-01-19T06:02:07.120Z,982.01
2023-01-19T06:03:07.024Z,981.92
2023-01-19T06:04:06.991Z,981.99
2023-01-19T06:05:06.973Z,982.02
2023-01-19T06:06:06.965Z,982.00
2023-01-19T06:07:07.000Z,982.01
2023-01-19T06:08:06.928Z,982.03
2023-01-19T06:09:06.917Z,982.01
2023-01-19T06:10:06.934Z,981.99
2023-01-19T06:11:06.906Z,982.02
2023-01-19T06:12:06.892Z,982.03
2023-01-19T06:13:06.886Z,982.13
2023-01-19T06:14:06.862Z,982.10
2023-01-19T06:15:06.855Z,982.13
2023-01-19T06:16:06.885Z,982.14
2023-01-19T06:17:06.839Z,982.17
2023-01-19T06:18:06.817Z,982.17
2023-01-19T06:19:06.813Z,982.11
2023-01-19T06:20:06.787Z,982.17
2023-01-19T06:21:06.787Z,982.24
2023-01-19T06:22:06.790Z,982.22
2023-01-19T06:23:06.759Z,982.19
2023-01-19T06:24:06.762Z,982.22
2023-01-19T06:25:06.748Z,982.24
2023-01-19T06:26:06.729Z,982.17
2023-01-19T06:27:06.755Z,982.21
2023-01-19T06:28:06.710Z,982.22
2023-01-19T06:29:06.706Z,982.23
2023-01-19T06:30:06.687Z,982.21
2023-01-19T06:31:06.727Z,982.24
2023-01-19T06:32:06.658Z,982.24
2023-01-19T06:33:06.667Z,982.28
2023-01-19T06:34:06.647Z,982.27
2023-01-19T06:35:06.624Z,982.23
2023-01-19T06:36:06.645Z,982.27
2023-01-19T06:37:06.612Z,982.27
2023-01-19T06:38:06.589Z,982.25
2023-01-19T06:39:06.612Z,982.26
2023-01-19T06:40:06.583Z,982.26
2023-01-19T06:41:06.592Z,982.24
2023-01-19T06:42:06.574Z,982.25
2023-01-19T06:43:06.539Z,982.27
2023-01-19T06:44:06.525Z,982.26
2023-01-19T06:45:06.522Z,982.27
2023-01-19T06:46:06.579Z,982.26
2023-01-19T06:47:14.681Z,982.24
2023-01-19T06:48:06.485Z,982.24
2023-01-19T06:49:06.513Z,982.26
2023-01-19T06:50:06.475Z,982.22
2023-01-19T06:51:06.445Z,982.29
2023-01-19T06:52:06.452Z,982.32
2023-01-19T06:53:06.458Z,982.34
2023-01-19T06:54:06.448Z,982.37
2023-01-19T06:55:06.421Z,982.37
2023-01-19T06:56:06.395Z,982.35
2023-01-19T06:57:06.378Z,982.30
2023-01-19T06:58:06.379Z,982.34
2023-01-19T06:59:06.366Z,982.38
2023-01-19T07:00:06.344Z,982.37
2023-01-19T07:01:06.472Z,982.35
2023-01-19T07:02:27.043Z,982.32
2023-01-19T07:03:06.376Z,982.32
2023-01-19T07:04:06.316Z,982.38
2023-01-19T07:05:06.312Z,982.45
2023-01-19T07:06:06.361Z,982.55
2023-01-19T07:07:06.282Z,982.63
2023-01-19T07:08:06.269Z,982.61
2023-01-19T07:09:06.264Z,982.68
2023-01-19T07:10:06.243Z,982.63
2023-01-19T07:11:25.246Z,982.67
2023-01-19T07:12:06.241Z,982.65
2023-01-19T07:13:06.249Z,982.63
2023-01-19T07:14:06.227Z,982.63
2023-01-19T07:15:06.182Z,982.66
2023-01-19T07:16:08.070Z,982.68
2023-01-19T07:17:06.177Z,982.71
2023-01-19T07:18:06.176Z,982.70
2023-01-19T07:19:06.152Z,982.71
2023-01-19T07:20:06.145Z,982.66
2023-01-19T07:21:06.120Z,982.69
2023-01-19T07:22:06.104Z,982.67
2023-01-19T07:23:06.098Z,982.70
2023-01-19T07:24:06.090Z,982.71
2023-01-19T07:25:06.145Z,982.78
2023-01-19T07:26:06.092Z,982.73
2023-01-19T07:27:06.060Z,982.78
2023-01-19T07:28:06.044Z,982.80
2023-01-19T07:29:06.052Z,982.82
2023-01-19T07:30:06.027Z,982.83
2023-01-19T07:31:06.232Z,982.80
2023-01-19T07:32:06.011Z,982.80
2023-01-19T07:33:05.988Z,982.87
2023-01-19T07:34:05.984Z,982.87
2023-01-19T07:35:05.994Z,982.91
2023-01-19T07:36:05.988Z,982.93
2023-01-19T07:37:05.990Z,982.91
2023-01-19T07:38:05.928Z,982.93
2023-01-19T07:39:05.942Z,982.97
2023-01-19T07:40:05.917Z,983.04
2023-01-19T07:41:05.913Z,983.03
2023-01-19T07:42:05.971Z,983.07
2023-01-19T07:43:05.884Z,983.08
2023-01-19T07:44:06.146Z,983.12
2023-01-19T07:45:05.859Z,983.07
2023-01-19T07:46:06.080Z,983.07
2023-01-19T07:47:05.857Z,983.09
2023-01-19T07:48:05.844Z,983.10
2023-01-19T07:49:05.811Z,983.05
2023-01-19T07:50:05.807Z,983.17
2023-01-19T07:51:05.970Z,983.13
2023-01-19T07:52:05.817Z,983.14
2023-01-19T07:53:05.810Z,983.19
2023-01-19T07:54:05.759Z,983.23
2023-01-19T07:55:05.746Z,983.29
2023-01-19T07:56:05.753Z,983.26
2023-01-19T07:57:05.732Z,983.24
2023-01-19T07:58:05.721Z,983.28
2023-01-19T07:59:05.713Z,983.31
2023-01-19T08:00:05.705Z,983.32
2023-01-19T08:01:05.803Z,983.37
2023-01-19T08:02:05.919Z,983.39
2023-01-19T08:03:05.677Z,983.40
2023-01-19T08:04:05.655Z,983.39
2023-01-19T08:05:05.652Z,983.44
2023-01-19T08:06:05.631Z,983.42
2023-01-19T08:07:05.649Z,983.42
2023-01-19T08:08:05.625Z,983.43
2023-01-19T08:09:05.699Z,983.48
2023-01-19T08:10:05.591Z,983.54
2023-01-19T08:11:05.576Z,983.55
2023-01-19T08:12:05.575Z,983.57
2023-01-19T08:13:05.556Z,983.54
2023-01-19T08:14:07.854Z,983.55
2023-01-19T08:15:05.558Z,983.63
2023-01-19T08:16:05.604Z,983.59
2023-01-19T08:17:05.521Z,983.63
2023-01-19T08:18:05.615Z,983.62
2023-01-19T08:19:05.496Z,983.69
2023-01-19T08:20:05.468Z,983.70
2023-01-19T08:21:05.472Z,983.68
2023-01-19T08:22:05.443Z,983.68
2023-01-19T08:23:05.501Z,983.67
2023-01-19T08:24:05.611Z,983.69
2023-01-19T08:25:05.413Z,983.72
2023-01-19T08:26:05.422Z,983.74
2023-01-19T08:27:05.999Z,983.74
2023-01-19T08:28:05.391Z,983.81
2023-01-19T08:29:05.365Z,983.75
2023-01-19T08:30:05.448Z,983.83
2023-01-19T08:31:19.160Z,983.81
2023-01-19T08:32:05.619Z,983.84
2023-01-19T08:33:05.329Z,983.81
2023-01-19T08:34:05.327Z,983.84
2023-01-19T08:35:05.336Z,983.80
2023-01-19T08:36:05.296Z,983.83
2023-01-19T08:37:05.291Z,983.84
2023-01-19T08:38:05.270Z,983.88
2023-01-19T08:39:05.279Z,983.87
2023-01-19T08:40:05.264Z,983.87
2023-01-19T08:41:05.286Z,983.87
2023-01-19T08:42:05.246Z,983.87
2023-01-19T08:43:05.241Z,983.92
2023-01-19T08:44:05.227Z,983.94
2023-01-19T08:45:05.227Z,983.99
2023-01-19T08:46:05.249Z,984.01
2023-01-19T08:47:05.289Z,984.01
2023-01-19T08:48:05.166Z,984.01
2023-01-19T08:49:05.184Z,984.03
2023-01-19T08:50:05.171Z,983.99
2023-01-19T08:51:05.167Z,984.01
2023-01-19T08:52:05.160Z,984.09
2023-01-19T08:53:05.167Z,984.05
2023-01-19T08:54:05.132Z,984.09
2023-01-19T08:55:05.148Z,984.05
2023-01-19T08:56:05.210Z,984.11
2023-01-19T08:57:05.113Z,984.09
2023-01-19T08:58:05.104Z,984.07
2023-01-19T08:59:09.897Z,984.16
2023-01-19T09:00:05.034Z,984.15
2023-01-19T09:01:05.100Z,984.15
2023-01-19T09:02:05.055Z,984.17
2023-01-19T09:03:05.640Z,984.22
2023-01-19T09:04:05.030Z,984.21
2023-01-19T09:05:04.985Z,984.22
2023-01-19T09:06:04.966Z,984.26
2023-01-19T09:08:04.958Z,984.30
2023-01-19T09:09:04.994Z,984.29
2023-01-19T09:10:04.936Z,984.26
2023-01-19T09:11:04.922Z,984.28
2023-01-19T09:12:04.897Z,984.32
2023-01-19T09:13:04.919Z,984.28
2023-01-19T09:14:04.887Z,984.30
2023-01-19T09:15:04.883Z,984.27
2023-01-19T09:16:04.918Z,984.30
2023-01-19T09:17:04.869Z,984.31
2023-01-19T09:18:04.846Z,984.37
2023-01-19T09:19:04.840Z,984.39
2023-01-19T09:20:04.814Z,984.38
2023-01-19T09:21:04.819Z,984.41
2023-01-19T09:22:04.787Z,984.43
2023-01-19T09:23:04.800Z,984.46
2023-01-19T09:24:04.772Z,984.43
2023-01-19T09:25:04.756Z,984.48
2023-01-19T09:26:04.811Z,984.50
2023-01-19T09:27:04.739Z,984.45
2023-01-19T09:28:04.724Z,984.52
2023-01-19T09:29:04.737Z,984.49
2023-01-19T09:30:04.738Z,984.48
2023-01-19T09:31:04.855Z,984.49
2023-01-19T09:32:04.715Z,984.51
2023-01-19T09:33:04.691Z,984.50
2023-01-19T09:34:04.688Z,984.53
2023-01-19T09:35:04.654Z,984.57
2023-01-19T09:36:04.657Z,984.61
2023-01-19T09:37:04.625Z,984.59
2023-01-19T09:38:04.657Z,984.55
2023-01-19T09:39:04.599Z,984.58
2023-01-19T09:40:04.716Z,984.55
2023-01-19T09:41:04.604Z,984.56
2023-01-19T09:42:04.578Z,984.57
2023-01-19T09:43:04.579Z,984.58
2023-01-19T09:44:04.564Z,984.59
2023-01-19T09:45:04.636Z,984.60
2023-01-19T09:46:04.580Z,984.63
2023-01-19T09:47:04.516Z,984.63
2023-01-19T09:48:04.514Z,984.64
2023-01-19T09:49:04.528Z,984.65
2023-01-19T09:50:04.504Z,984.68
2023-01-19T09:51:04.493Z,984.69
2023-01-19T09:52:04.475Z,984.78
2023-01-19T09:53:04.457Z,984.75
2023-01-19T09:54:04.495Z,984.73
2023-01-19T09:55:04.440Z,984.71
2023-01-19T09:56:04.418Z,984.73
2023-01-19T09:57:04.401Z,984.72
2023-01-19T09:58:04.433Z,984.76
2023-01-19T09:59:04.430Z,984.78
2023-01-19T10:00:04.390Z,984.77
2023-01-19T10:01:04.459Z,984.75
2023-01-19T10:02:04.356Z,984.78
2023-01-19T10:03:04.589Z,984.82
2023-01-19T10:04:04.327Z,984.82
2023-01-19T10:05:04.346Z,984.83
2023-01-19T10:06:04.340Z,984.81
2023-01-19T10:07:04.307Z,984.82
2023-01-19T10:08:04.283Z,984.78
2023-01-19T10:09:04.363Z,984.84
2023-01-19T10:10:04.272Z,984.89
2023-01-19T10:11:04.254Z,984.92
2023-01-19T10:12:04.239Z,984.87
2023-01-19T10:13:04.380Z,984.86
2023-01-19T10:14:04.227Z,984.88
2023-01-19T10:15:04.211Z,984.86
2023-01-19T10:16:04.252Z,984.89
2023-01-19T10:17:04.183Z,984.90
2023-01-19T10:18:04.296Z,984.90
2023-01-19T10:19:04.412Z,984.90
2023-01-19T10:20:04.277Z,984.92
2023-01-19T10:21:05.573Z,984.97
2023-01-19T10:22:04.132Z,984.91
2023-01-19T10:23:04.641Z,984.98
2023-01-19T10:24:05.833Z,984.95
2023-01-19T10:25:04.099Z,984.94
2023-01-19T10:26:04.112Z,984.96
2023-01-19T10:27:04.098Z,984.97
2023-01-19T10:28:04.070Z,984.94
2023-01-19T10:29:04.068Z,984.98
2023-01-19T10:30:04.095Z,985.01
2023-01-19T10:31:04.176Z,985.02
2023-01-19T10:32:04.081Z,984.99
2023-01-19T10:33:04.413Z,985.04
2023-01-19T10:34:04.004Z,985.03
2023-01-19T10:35:04.011Z,985.10
2023-01-19T10:36:03.977Z,985.05
2023-01-19T10:37:03.991Z,985.10
2023-01-19T10:38:03.958Z,985.09
2023-01-19T10:39:03.999Z,985.10
2023-01-19T10:40:03.931Z,985.14
2023-01-19T10:41:03.939Z,985.17
2023-01-19T10:42:03.925Z,985.13
2023-01-19T10:43:04.361Z,985.17
2023-01-19T10:44:03.898Z,985.15
2023-01-19T10:45:03.881Z,985.18
2023-01-19T10:46:03.986Z,985.14
2023-01-19T10:47:03.867Z,985.18
2023-01-19T10:48:03.872Z,985.15
2023-01-19T10:49:03.865Z,985.19
2023-01-19T10:50:03.887Z,985.14
2023-01-19T10:51:03.814Z,985.13
2023-01-19T10:52:03.891Z,985.16
2023-01-19T10:53:04.322Z,985.17
2023-01-19T10:54:03.798Z,985.18
2023-01-19T10:55:03.792Z,985.19
2023-01-19T10:56:03.747Z,985.16
2023-01-19T10:57:03.748Z,985.20
2023-01-19T10:58:03.789Z,985.18
2023-01-19T10:59:03.722Z,985.23
2023-01-19T11:00:03.705Z,985.24
2023-01-19T11:01:03.788Z,985.20
2023-01-19T11:02:03.959Z,985.20
2023-01-19T11:03:04.182Z,985.17
2023-01-19T11:04:03.735Z,985.15
2023-01-19T11:05:03.665Z,985.21
2023-01-19T11:06:03.644Z,985.23
2023-01-19T11:07:03.637Z,985.20
2023-01-19T11:08:03.631Z,985.22
2023-01-19T11:09:03.614Z,985.18
2023-01-19T11:10:03.614Z,985.16
2023-01-19T11:11:03.588Z,985.18
2023-01-19T11:12:03.576Z,985.17
2023-01-19T11:13:04.258Z,985.16
2023-01-19T11:14:03.577Z,985.19
2023-01-19T11:15:03.564Z,985.16
2023-01-19T11:16:03.551Z,985.13
2023-01-19T11:17:03.535Z,985.16
2023-01-19T11:18:03.525Z,985.19
2023-01-19T11:19:03.504Z,985.20
2023-01-19T11:20:03.510Z,985.22
2023-01-19T11:21:03.516Z,985.25
2023-01-19T11:22:03.476Z,985.15
2023-01-19T11:23:03.863Z,985.18
2023-01-19T11:24:03.456Z,985.17
2023-01-19T11:25:03.469Z,985.22
2023-01-19T11:26:03.436Z,985.17
2023-01-19T11:27:03.406Z,985.19
2023-01-19T11:28:03.402Z,985.20
2023-01-19T11:29:03.411Z,985.18
2023-01-19T11:30:03.407Z,985.20
2023-01-19T11:31:03.411Z,985.23
2023-01-19T11:32:03.413Z,985.23
2023-01-19T11:33:03.571Z,985.23
2023-01-19T11:34:03.358Z,985.23
2023-01-19T11:35:03.320Z,985.22
2023-01-19T11:36:03.352Z,985.18
2023-01-19T11:37:03.358Z,985.15
2023-01-19T11:38:03.297Z,985.14
2023-01-19T11:39:03.285Z,985.21
2023-01-19T11:40:03.273Z,985.20
2023-01-19T11:41:03.269Z,985.19
2023-01-19T11:42:03.284Z,985.24
2023-01-19T11:43:03.578Z,985.22
2023-01-19T11:44:03.240Z,985.21
2023-01-19T11:45:03.230Z,985.20
2023-01-19T11:46:03.248Z,985.17
2023-01-19T11:47:03.212Z,985.18
2023-01-19T11:48:03.729Z,985.24
2023-01-19T11:49:03.188Z,985.18
2023-01-19T11:50:03.179Z,985.19
2023-01-19T11:51:03.145Z,985.18
2023-01-19T11:52:03.183Z,985.18
2023-01-19T11:53:03.126Z,985.20
2023-01-19T11:54:03.127Z,985.19
2023-01-19T11:55:03.133Z,985.19
2023-01-19T11:56:03.108Z,985.15
2023-01-19T11:57:03.100Z,985.13
2023-01-19T11:58:03.549Z,985.16
2023-01-19T11:59:03.072Z,985.17
2023-01-19T12:00:03.053Z,985.17
2023-01-19T12:01:03.090Z,985.19
2023-01-19T12:02:03.108Z,985.18
2023-01-19T12:03:03.108Z,985.19
2023-01-19T12:04:03.105Z,985.19
2023-01-19T12:05:03.073Z,985.18
2023-01-19T12:06:02.980Z,985.26
2023-01-19T12:07:02.993Z,985.22
2023-01-19T12:08:05.492Z,985.23
2023-01-19T12:09:02.960Z,985.22
2023-01-19T12:10:02.946Z,985.22
2023-01-19T12:11:02.953Z,985.20
2023-01-19T12:12:02.932Z,985.19
2023-01-19T12:13:02.903Z,985.26
2023-01-19T12:14:02.894Z,985.23
2023-01-19T12:15:03.368Z,985.25
2023-01-19T12:16:02.874Z,985.28
2023-01-19T12:17:02.880Z,985.26
2023-01-19T12:18:03.304Z,985.30
2023-01-19T12:19:02.844Z,985.26
2023-01-19T12:20:02.844Z,985.28
2023-01-19T12:21:04.180Z,985.28
2023-01-19T12:22:02.804Z,985.29
2023-01-19T12:23:02.822Z,985.27
2023-01-19T12:24:02.801Z,985.28
2023-01-19T12:25:02.766Z,985.30
2023-01-19T12:26:02.783Z,985.24
2023-01-19T12:27:02.760Z,985.26
2023-01-19T12:28:02.837Z,985.26
2023-01-19T12:29:02.757Z,985.27